sensor_id;sensor_type;location;lat;lon;timestamp;pressure;altitude;pressure_sealevel;temperature;humidity
31239;BME280;17871;31.584;74.450;2023-02-18T00:01:50;98764.50;;;17.07;99.62
31239;BME280;17871;31.584;74.450;2023-02-18T00:04:18;98759.31;;;17.07;100.00
31239;BME280;17871;31.584;74.450;2023-02-18T00:06:47;98763.53;;;17.12;100.00
31239;BME280;17871;31.584;74.450;2023-02-18T00:09:16;98769.56;;;17.15;100.00
31239;BME280;17871;31.584;74.450;2023-02-18T00:11:45;98767.03;;;17.10;100.00
31239;BME280;17871;31.584;74.450;2023-02-18T00:14:15;98776.34;;;17.22;100.00
31239;BME280;17871;31.584;74.450;2023-02-18T00:16:45;98767.81;;;17.17;100.00
31239;BME280;17871;31.584;74.450;2023-02-18T00:19:17;98770.25;;;17.26;100.00
31239;BME280;17871;31.584;74.450;2023-02-18T00:21:47;98770.44;;;17.13;99.53
31239;BME280;17871;31.584;74.450;2023-02-18T00:24:16;98767.94;;;17.07;100.00
31239;BME280;17871;31.584;74.450;2023-02-18T00:26:45;98765.34;;;17.06;100.00
31239;BME280;17871;31.584;74.450;2023-02-18T00:29:13;98766.28;;;17.02;100.00
31239;BME280;17871;31.584;74.450;2023-02-18T00:31:43;98765.34;;;17.09;100.00
31239;BME280;17871;31.584;74.450;2023-02-18T00:34:12;98769.53;;;17.16;100.00
31239;BME280;17871;31.584;74.450;2023-02-18T00:36:41;98763.50;;;17.17;100.00
31239;BME280;17871;31.584;74.450;2023-02-18T00:39:10;98770.28;;;17.24;100.00
31239;BME280;17871;31.584;74.450;2023-02-18T00:41:40;98768.63;;;17.20;99.86
31239;BME280;17871;31.584;74.450;2023-02-18T00:44:11;98768.56;;;17.23;100.00
31239;BME280;17871;31.584;74.450;2023-02-18T00:46:41;98769.47;;;17.21;99.75
31239;BME280;17871;31.584;74.450;2023-02-18T00:49:09;98767.84;;;17.13;99.94
31239;BME280;17871;31.584;74.450;2023-02-18T00:51:40;98770.41;;;17.15;100.00
31239;BME280;17871;31.584;74.450;2023-02-18T00:54:09;98763.63;;;17.08;99.68
31239;BME280;17871;31.584;74.450;2023-02-18T00:56:38;98766.13;;;17.16;100.00
31239;BME280;17871;31.584;74.450;2023-02-18T00:59:07;98770.41;;;17.15;99.60
31239;BME280;17871;31.584;74.450;2023-02-18T01:01:37;98768.69;;;17.14;99.54
31239;BME280;17871;31.584;74.450;2023-02-18T01:04:09;98781.03;;;16.91;100.00
31239;BME280;17871;31.584;74.450;2023-02-18T01:06:40;98773.38;;;16.85;100.00
31239;BME280;17871;31.584;74.450;2023-02-18T01:09:13;98782.25;;;17.31;99.62
31239;BME280;17871;31.584;74.450;2023-02-18T01:11:44;98792.13;;;17.02;100.00
31239;BME280;17871;31.584;74.450;2023-02-18T01:14:15;98785.03;;;17.16;100.00
31239;BME280;17871;31.584;74.450;2023-02-18T01:16:45;98787.94;;;16.92;99.73
31239;BME280;17871;31.584;74.450;2023-02-18T01:19:14;98799.13;;;16.89;99.87
31239;BME280;17871;31.584;74.450;2023-02-18T01:21:43;98803.50;;;16.86;100.00
31239;BME280;17871;31.584;74.450;2023-02-18T01:24:14;98809.47;;;16.86;100.00
31239;BME280;17871;31.584;74.450;2023-02-18T01:26:43;98816.25;;;16.96;100.00
31239;BME280;17871;31.584;74.450;2023-02-18T01:29:14;98817.19;;;16.91;100.00
31239;BME280;17871;31.584;74.450;2023-02-18T01:31:43;98819.91;;;16.77;100.00
31239;BME280;17871;31.584;74.450;2023-02-18T01:34:14;98829.44;;;16.71;100.00
31239;BME280;17871;31.584;74.450;2023-02-18T01:36:43;98837.22;;;16.68;99.86
31239;BME280;17871;31.584;74.450;2023-02-18T01:39:12;98841.56;;;16.66;99.54
31239;BME280;17871;31.584;74.450;2023-02-18T01:41:42;98846.75;;;16.63;98.83
31239;BME280;17871;31.584;74.450;2023-02-18T01:44:19;98844.06;;;16.70;99.07
31239;BME280;17871;31.584;74.450;2023-02-18T01:46:49;98850.06;;;16.74;98.62
31239;BME280;17871;31.584;74.450;2023-02-18T01:49:30;98850.75;;;16.92;99.16
31239;BME280;17871;31.584;74.450;2023-02-18T01:52:11;98852.34;;;17.02;98.74
31239;BME280;17871;31.584;74.450;2023-02-18T01:54:45;98859.28;;;16.97;98.78
31239;BME280;17871;31.584;74.450;2023-02-18T01:57:30;98863.47;;;17.06;99.15
31239;BME280;17871;31.584;74.450;2023-02-18T02:00:05;98871.28;;;17.00;99.22
31239;BME280;17871;31.584;74.450;2023-02-18T02:02:44;98870.47;;;16.98;99.22
31239;BME280;17871;31.584;74.450;2023-02-18T02:05:14;98873.16;;;16.89;99.06
31239;BME280;17871;31.584;74.450;2023-02-18T02:07:45;98879.03;;;17.00;99.04
31239;BME280;17871;31.584;74.450;2023-02-18T02:10:15;98883.38;;;16.98;98.47
31239;BME280;17871;31.584;74.450;2023-02-18T02:21:41;98891.56;;;17.33;97.94
31239;BME280;17871;31.584;74.450;2023-02-18T02:29:50;98896.56;;;17.47;98.31
31239;BME280;17871;31.584;74.450;2023-02-18T02:35:30;98897.34;;;17.56;98.62
31239;BME280;17871;31.584;74.450;2023-02-18T02:41:25;98910.06;;;17.72;98.67
31239;BME280;17871;31.584;74.450;2023-02-18T02:46:53;98927.41;;;17.62;98.33
31239;BME280;17871;31.584;74.450;2023-02-18T02:52:23;98936.06;;;17.61;98.97
31239;BME280;17871;31.584;74.450;2023-02-18T02:54:54;98950.84;;;17.48;97.97
31239;BME280;17871;31.584;74.450;2023-02-18T03:00:08;98956.38;;;17.90;97.17
31239;BME280;17871;31.584;74.450;2023-02-18T03:06:15;98976.69;;;18.15;96.83
31239;BME280;17871;31.584;74.450;2023-02-18T03:12:02;98970.50;;;18.27;95.77
31239;BME280;17871;31.584;74.450;2023-02-18T03:14:58;98980.47;;;18.54;94.54
31239;BME280;17871;31.584;74.450;2023-02-18T03:17:46;98983.84;;;18.59;94.68
31239;BME280;17871;31.584;74.450;2023-02-18T03:20:30;98983.59;;;18.76;94.76
31239;BME280;17871;31.584;74.450;2023-02-18T03:23:07;98983.47;;;18.81;93.98
31239;BME280;17871;31.584;74.450;2023-02-18T03:25:39;98982.78;;;18.71;94.11
31239;BME280;17871;31.584;74.450;2023-02-18T03:28:16;98978.03;;;18.97;93.00
31239;BME280;17871;31.584;74.450;2023-02-18T03:30:52;98984.69;;;19.10;93.22
31239;BME280;17871;31.584;74.450;2023-02-18T03:33:27;98996.66;;;19.19;93.26
31239;BME280;17871;31.584;74.450;2023-02-18T03:35:58;98987.16;;;19.18;92.56
31239;BME280;17871;31.584;74.450;2023-02-18T03:38:49;98997.75;;;19.55;91.48
31239;BME280;17871;31.584;74.450;2023-02-18T03:41:20;99004.22;;;19.77;90.46
31239;BME280;17871;31.584;74.450;2023-02-18T03:43:53;99001.06;;;19.61;90.90
31239;BME280;17871;31.584;74.450;2023-02-18T03:46:28;98998.41;;;19.64;91.38
31239;BME280;17871;31.584;74.450;2023-02-18T03:48:59;99004.19;;;19.79;91.18
31239;BME280;17871;31.584;74.450;2023-02-18T03:51:28;99010.94;;;19.86;90.82
31239;BME280;17871;31.584;74.450;2023-02-18T03:53:57;99007.41;;;19.90;90.93
31239;BME280;17871;31.584;74.450;2023-02-18T03:56:26;99011.31;;;20.09;90.48
31239;BME280;17871;31.584;74.450;2023-02-18T03:58:55;99015.63;;;20.10;89.08
31239;BME280;17871;31.584;74.450;2023-02-18T04:01:24;99020.50;;;20.27;88.96
31239;BME280;17871;31.584;74.450;2023-02-18T04:03:53;99021.22;;;20.33;88.16
31239;BME280;17871;31.584;74.450;2023-02-18T04:06:23;99022.00;;;20.37;88.44
31239;BME280;17871;31.584;74.450;2023-02-18T04:08:52;99024.97;;;20.58;87.39
31239;BME280;17871;31.584;74.450;2023-02-18T04:11:21;99036.41;;;20.50;87.66
31239;BME280;17871;31.584;74.450;2023-02-18T04:13:50;99031.94;;;20.56;86.99
31239;BME280;17871;31.584;74.450;2023-02-18T04:16:19;99025.28;;;20.82;85.04
31239;BME280;17871;31.584;74.450;2023-02-18T04:18:48;99019.97;;;20.86;83.60
31239;BME280;17871;31.584;74.450;2023-02-18T04:21:16;99016.44;;;20.90;82.51
31239;BME280;17871;31.584;74.450;2023-02-18T04:23:46;99023.84;;;21.05;81.64
31239;BME280;17871;31.584;74.450;2023-02-18T04:26:14;99025.50;;;21.08;80.78
31239;BME280;17871;31.584;74.450;2023-02-18T04:28:43;99024.22;;;21.26;81.08
31239;BME280;17871;31.584;74.450;2023-02-18T04:31:12;99020.38;;;21.40;80.13
31239;BME280;17871;31.584;74.450;2023-02-18T04:33:43;99017.34;;;21.57;79.57
31239;BME280;17871;31.584;74.450;2023-02-18T04:36:12;99009.44;;;21.60;78.77
31239;BME280;17871;31.584;74.450;2023-02-18T04:38:40;99008.41;;;21.65;78.58
31239;BME280;17871;31.584;74.450;2023-02-18T04:41:10;99013.34;;;21.74;78.34
31239;BME280;17871;31.584;74.450;2023-02-18T04:43:40;99005.28;;;21.84;77.25
31239;BME280;17871;31.584;74.450;2023-02-18T04:46:09;99013.78;;;21.92;76.95
31239;BME280;17871;31.584;74.450;2023-02-18T04:48:38;99010.91;;;22.01;76.28
31239;BME280;17871;31.584;74.450;2023-02-18T04:51:07;99010.63;;;22.10;75.83
31239;BME280;17871;31.584;74.450;2023-02-18T04:53:36;99006.94;;;22.17;75.71
31239;BME280;17871;31.584;74.450;2023-02-18T04:56:05;99015.13;;;22.34;75.44
31239;BME280;17871;31.584;74.450;2023-02-18T04:58:35;99011.63;;;22.35;75.47
31239;BME280;17871;31.584;74.450;2023-02-18T05:01:04;99007.75;;;22.48;74.85
31239;BME280;17871;31.584;74.450;2023-02-18T05:03:33;99006.44;;;22.61;74.42
31239;BME280;17871;31.584;74.450;2023-02-18T05:06:03;98999.50;;;22.62;73.93
31239;BME280;17871;31.584;74.450;2023-02-18T05:08:32;99002.53;;;22.76;73.12
31239;BME280;17871;31.584;74.450;2023-02-18T05:11:05;98987.94;;;22.97;73.51
31239;BME280;17871;31.584;74.450;2023-02-18T05:13:34;98999.56;;;22.87;72.83
31239;BME280;17871;31.584;74.450;2023-02-18T05:16:03;98983.53;;;22.99;71.34
31239;BME280;17871;31.584;74.450;2023-02-18T05:21:01;98990.88;;;23.12;69.69
31239;BME280;17871;31.584;74.450;2023-02-18T05:23:31;98993.28;;;23.18;69.50
31239;BME280;17871;31.584;74.450;2023-02-18T05:26:00;98988.53;;;23.31;69.42
31239;BME280;17871;31.584;74.450;2023-02-18T05:28:29;98987.47;;;23.35;69.08
31239;BME280;17871;31.584;74.450;2023-02-18T05:30:57;98993.53;;;23.37;68.90
31239;BME280;17871;31.584;74.450;2023-02-18T05:33:27;98988.69;;;23.51;69.17
31239;BME280;17871;31.584;74.450;2023-02-18T05:35:56;98984.94;;;23.58;68.42
31239;BME280;17871;31.584;74.450;2023-02-18T05:38:25;98990.88;;;23.63;67.87
31239;BME280;17871;31.584;74.450;2023-02-18T05:40:54;98985.78;;;23.84;67.03
31239;BME280;17871;31.584;74.450;2023-02-18T05:43:24;98987.56;;;23.82;66.68
31239;BME280;17871;31.584;74.450;2023-02-18T05:45:53;98981.81;;;23.97;65.70
31239;BME280;17871;31.584;74.450;2023-02-18T05:48:22;98984.09;;;24.04;64.80
31239;BME280;17871;31.584;74.450;2023-02-18T05:50:53;98977.00;;;24.31;64.87
31239;BME280;17871;31.584;74.450;2023-02-18T05:53:22;98979.50;;;24.34;64.98
31239;BME280;17871;31.584;74.450;2023-02-18T05:55:51;98970.63;;;24.38;64.55
31239;BME280;17871;31.584;74.450;2023-02-18T05:58:20;98970.22;;;24.49;64.43
31239;BME280;17871;31.584;74.450;2023-02-18T06:00:49;98969.25;;;24.51;64.35
31239;BME280;17871;31.584;74.450;2023-02-18T06:03:18;98965.09;;;24.67;63.88
31239;BME280;17871;31.584;74.450;2023-02-18T06:05:50;98966.78;;;24.90;63.86
31239;BME280;17871;31.584;74.450;2023-02-18T06:08:19;98966.19;;;24.84;62.90
31239;BME280;17871;31.584;74.450;2023-02-18T06:10:48;98969.88;;;25.00;62.88
31239;BME280;17871;31.584;74.450;2023-02-18T06:13:17;98966.53;;;24.96;62.25
31239;BME280;17871;31.584;74.450;2023-02-18T06:15:49;98965.50;;;25.20;61.77
31239;BME280;17871;31.584;74.450;2023-02-18T06:18:19;98962.75;;;25.23;60.31
31239;BME280;17871;31.584;74.450;2023-02-18T06:20:48;98957.22;;;25.31;60.19
31239;BME280;17871;31.584;74.450;2023-02-18T06:23:17;98958.97;;;25.51;59.66
31239;BME280;17871;31.584;74.450;2023-02-18T06:25:49;98953.09;;;25.85;59.48
31239;BME280;17871;31.584;74.450;2023-02-18T06:28:19;98950.38;;;25.67;59.04
31239;BME280;17871;31.584;74.450;2023-02-18T06:30:48;98952.25;;;25.84;58.61
31239;BME280;17871;31.584;74.450;2023-02-18T06:33:17;98946.91;;;25.86;59.03
31239;BME280;17871;31.584;74.450;2023-02-18T06:38:49;98936.81;;;25.97;57.57
31239;BME280;17871;31.584;74.450;2023-02-18T06:41:18;98942.03;;;26.15;55.58
31239;BME280;17871;31.584;74.450;2023-02-18T06:43:47;98932.28;;;26.19;55.97
31239;BME280;17871;31.584;74.450;2023-02-18T06:46:16;98933.28;;;26.16;56.83
31239;BME280;17871;31.584;74.450;2023-02-18T06:48:45;98933.84;;;26.23;56.51
31239;BME280;17871;31.584;74.450;2023-02-18T06:51:14;98935.09;;;26.33;56.19
31239;BME280;17871;31.584;74.450;2023-02-18T06:53:44;98929.16;;;26.29;55.30
31239;BME280;17871;31.584;74.450;2023-02-18T06:56:13;98929.66;;;26.38;55.38
31239;BME280;17871;31.584;74.450;2023-02-18T06:58:42;98918.78;;;26.45;56.12
31239;BME280;17871;31.584;74.450;2023-02-18T07:01:11;98915.25;;;26.46;55.37
31239;BME280;17871;31.584;74.450;2023-02-18T07:03:40;98909.69;;;26.52;54.34
31239;BME280;17871;31.584;74.450;2023-02-18T07:06:09;98912.03;;;26.75;53.99
31239;BME280;17871;31.584;74.450;2023-02-18T07:08:38;98902.59;;;26.71;55.74
31239;BME280;17871;31.584;74.450;2023-02-18T07:11:07;98905.59;;;26.83;55.83
31239;BME280;17871;31.584;74.450;2023-02-18T07:13:36;98906.13;;;26.89;56.05
31239;BME280;17871;31.584;74.450;2023-02-18T07:16:05;98891.63;;;26.82;56.66
31239;BME280;17871;31.584;74.450;2023-02-18T07:18:34;98886.28;;;27.01;56.47
31239;BME280;17871;31.584;74.450;2023-02-18T07:21:03;98875.59;;;27.21;56.21
31239;BME280;17871;31.584;74.450;2023-02-18T07:23:32;98876.00;;;27.13;56.42
31239;BME280;17871;31.584;74.450;2023-02-18T07:26:12;98877.03;;;27.44;57.13
31239;BME280;17871;31.584;74.450;2023-02-18T07:28:41;98873.78;;;27.06;56.74
31239;BME280;17871;31.584;74.450;2023-02-18T07:31:10;98866.66;;;27.08;57.08
31239;BME280;17871;31.584;74.450;2023-02-18T07:33:39;98855.63;;;27.01;57.63
31239;BME280;17871;31.584;74.450;2023-02-18T07:36:08;98862.06;;;26.96;57.71
31239;BME280;17871;31.584;74.450;2023-02-18T07:38:38;98861.97;;;26.97;56.56
31239;BME280;17871;31.584;74.450;2023-02-18T07:41:21;98861.66;;;27.36;57.15
31239;BME280;17871;31.584;74.450;2023-02-18T07:43:50;98859.81;;;27.38;56.71
31239;BME280;17871;31.584;74.450;2023-02-18T07:46:19;98857.50;;;27.32;55.76
31239;BME280;17871;31.584;74.450;2023-02-18T07:48:49;98851.63;;;27.27;54.28
31239;BME280;17871;31.584;74.450;2023-02-18T07:51:18;98852.09;;;27.35;53.92
31239;BME280;17871;31.584;74.450;2023-02-18T07:53:47;98834.28;;;27.57;53.68
31239;BME280;17871;31.584;74.450;2023-02-18T07:56:16;98839.66;;;27.39;46.98
31239;BME280;17871;31.584;74.450;2023-02-18T07:58:46;98842.34;;;27.37;42.03
31239;BME280;17871;31.584;74.450;2023-02-18T08:01:15;98840.19;;;27.45;42.92
31239;BME280;17871;31.584;74.450;2023-02-18T08:03:44;98826.91;;;27.48;44.58
31239;BME280;17871;31.584;74.450;2023-02-18T08:06:27;98822.78;;;27.75;42.88
31239;BME280;17871;31.584;74.450;2023-02-18T08:08:57;98804.81;;;27.52;47.49
31239;BME280;17871;31.584;74.450;2023-02-18T08:11:26;98804.97;;;27.65;47.12
31239;BME280;17871;31.584;74.450;2023-02-18T08:13:55;98795.63;;;27.91;47.79
31239;BME280;17871;31.584;74.450;2023-02-18T08:16:24;98784.63;;;27.84;47.72
31239;BME280;17871;31.584;74.450;2023-02-18T08:18:54;98781.13;;;27.83;46.23
31239;BME280;17871;31.584;74.450;2023-02-18T08:21:24;98774.25;;;27.97;47.02
31239;BME280;17871;31.584;74.450;2023-02-18T08:23:53;98773.41;;;27.96;47.14
31239;BME280;17871;31.584;74.450;2023-02-18T08:26:22;98769.84;;;27.97;47.66
31239;BME280;17871;31.584;74.450;2023-02-18T08:28:51;98766.00;;;28.03;46.20
31239;BME280;17871;31.584;74.450;2023-02-18T08:31:23;98757.28;;;28.18;45.81
31239;BME280;17871;31.584;74.450;2023-02-18T08:33:54;98753.81;;;28.17;46.62
31239;BME280;17871;31.584;74.450;2023-02-18T08:36:25;98758.84;;;28.06;44.74
31239;BME280;17871;31.584;74.450;2023-02-18T08:38:54;98755.78;;;28.14;43.60
31239;BME280;17871;31.584;74.450;2023-02-18T08:41:23;98742.56;;;28.15;44.03
31239;BME280;17871;31.584;74.450;2023-02-18T08:43:52;98743.22;;;28.19;43.29
31239;BME280;17871;31.584;74.450;2023-02-18T08:46:21;98741.16;;;28.24;44.82
31239;BME280;17871;31.584;74.450;2023-02-18T08:49:02;98734.59;;;28.31;44.47
31239;BME280;17871;31.584;74.450;2023-02-18T08:51:32;98739.88;;;28.31;45.55
31239;BME280;17871;31.584;74.450;2023-02-18T08:54:01;98735.72;;;28.27;45.63
31239;BME280;17871;31.584;74.450;2023-02-18T08:56:30;98735.53;;;28.30;44.16
31239;BME280;17871;31.584;74.450;2023-02-18T08:59:00;98732.25;;;28.26;44.62
31239;BME280;17871;31.584;74.450;2023-02-18T09:01:28;98726.91;;;28.28;44.32
31239;BME280;17871;31.584;74.450;2023-02-18T09:03:57;98732.16;;;28.28;44.88
31239;BME280;17871;31.584;74.450;2023-02-18T09:06:26;98722.59;;;28.41;44.34
31239;BME280;17871;31.584;74.450;2023-02-18T09:08:57;98718.53;;;28.35;45.04
31239;BME280;17871;31.584;74.450;2023-02-18T09:11:26;98716.56;;;28.39;45.07
31239;BME280;17871;31.584;74.450;2023-02-18T09:13:55;98715.66;;;28.40;45.56
31239;BME280;17871;31.584;74.450;2023-02-18T09:16:24;98712.28;;;28.38;44.45
31239;BME280;17871;31.584;74.450;2023-02-18T09:18:55;98699.22;;;28.37;45.47
31239;BME280;17871;31.584;74.450;2023-02-18T09:21:26;98690.47;;;28.22;45.57
31239;BME280;17871;31.584;74.450;2023-02-18T09:23:55;98694.63;;;28.40;45.28
31239;BME280;17871;31.584;74.450;2023-02-18T09:26:25;98702.13;;;28.32;45.10
31239;BME280;17871;31.584;74.450;2023-02-18T09:28:55;98703.81;;;28.33;45.50
31239;BME280;17871;31.584;74.450;2023-02-18T09:31:26;98702.03;;;28.33;45.70
31239;BME280;17871;31.584;74.450;2023-02-18T09:34:00;98698.75;;;28.44;45.71
31239;BME280;17871;31.584;74.450;2023-02-18T09:36:29;98692.25;;;28.35;45.51
31239;BME280;17871;31.584;74.450;2023-02-18T09:38:58;98693.69;;;28.41;45.67
31239;BME280;17871;31.584;74.450;2023-02-18T09:42:06;98695.38;;;28.56;45.35
31239;BME280;17871;31.584;74.450;2023-02-18T09:44:50;98694.03;;;28.49;44.61
31239;BME280;17871;31.584;74.450;2023-02-18T09:50:23;98692.38;;;28.62;45.11
31239;BME280;17871;31.584;74.450;2023-02-18T09:52:53;98679.41;;;28.45;45.78
31239;BME280;17871;31.584;74.450;2023-02-18T09:55:34;98673.78;;;28.51;46.71
31239;BME280;17871;31.584;74.450;2023-02-18T09:58:33;98670.13;;;28.54;45.91
31239;BME280;17871;31.584;74.450;2023-02-18T10:01:13;98675.47;;;28.38;46.63
31239;BME280;17871;31.584;74.450;2023-02-18T10:03:44;98671.69;;;28.28;46.73
31239;BME280;17871;31.584;74.450;2023-02-18T10:06:21;98669.53;;;28.34;45.85
31239;BME280;17871;31.584;74.450;2023-02-18T10:08:53;98667.09;;;28.31;45.67
31239;BME280;17871;31.584;74.450;2023-02-18T10:11:29;98661.94;;;28.30;46.79
31239;BME280;17871;31.584;74.450;2023-02-18T10:13:59;98671.31;;;28.20;47.16
31239;BME280;17871;31.584;74.450;2023-02-18T10:16:29;98662.69;;;28.18;47.44
31239;BME280;17871;31.584;74.450;2023-02-18T10:19:03;98660.22;;;28.15;47.19
31239;BME280;17871;31.584;74.450;2023-02-18T10:21:34;98658.72;;;28.11;46.97
31239;BME280;17871;31.584;74.450;2023-02-18T10:26:53;98654.56;;;28.07;49.33
31239;BME280;17871;31.584;74.450;2023-02-18T10:29:23;98649.47;;;28.04;50.32
31239;BME280;17871;31.584;74.450;2023-02-18T10:32:06;98655.91;;;28.14;51.25
31239;BME280;17871;31.584;74.450;2023-02-18T10:35:05;98654.50;;;28.08;52.91
31239;BME280;17871;31.584;74.450;2023-02-18T10:37:53;98648.06;;;27.98;53.33
31239;BME280;17871;31.584;74.450;2023-02-18T10:50:55;98637.56;;;27.68;53.21
31239;BME280;17871;31.584;74.450;2023-02-18T10:53:30;98644.84;;;27.63;53.38
31239;BME280;17871;31.584;74.450;2023-02-18T10:56:00;98643.44;;;27.58;53.20
31239;BME280;17871;31.584;74.450;2023-02-18T10:58:32;98638.84;;;27.61;53.31
31239;BME280;17871;31.584;74.450;2023-02-18T11:01:20;98635.50;;;27.73;54.41
31239;BME280;17871;31.584;74.450;2023-02-18T11:03:51;98630.50;;;27.55;55.56
31239;BME280;17871;31.584;74.450;2023-02-18T11:06:44;98631.91;;;27.60;55.95
31239;BME280;17871;31.584;74.450;2023-02-18T11:09:41;98630.31;;;27.58;56.32
31239;BME280;17871;31.584;74.450;2023-02-18T11:14:46;98620.19;;;27.36;57.87
31239;BME280;17871;31.584;74.450;2023-02-18T11:17:18;98621.81;;;27.23;59.26
31239;BME280;17871;31.584;74.450;2023-02-18T11:19:53;98620.34;;;27.33;59.34
31239;BME280;17871;31.584;74.450;2023-02-18T11:22:31;98634.94;;;27.23;58.75
31239;BME280;17871;31.584;74.450;2023-02-18T11:25:22;98629.31;;;27.29;59.05
31239;BME280;17871;31.584;74.450;2023-02-18T11:27:58;98629.25;;;27.15;60.74
31239;BME280;17871;31.584;74.450;2023-02-18T11:30:43;98624.59;;;27.20;61.61
31239;BME280;17871;31.584;74.450;2023-02-18T11:35:53;98627.50;;;27.00;62.41
31239;BME280;17871;31.584;74.450;2023-02-18T11:41:16;98628.84;;;26.91;62.32
31239;BME280;17871;31.584;74.450;2023-02-18T11:43:50;98623.38;;;26.78;63.57
31239;BME280;17871;31.584;74.450;2023-02-18T11:46:23;98630.34;;;26.79;63.97
31239;BME280;17871;31.584;74.450;2023-02-18T11:48:53;98620.09;;;26.75;64.16
31239;BME280;17871;31.584;74.450;2023-02-18T11:51:26;98615.94;;;26.71;64.61
31239;BME280;17871;31.584;74.450;2023-02-18T11:54:23;98628.81;;;26.75;64.76
31239;BME280;17871;31.584;74.450;2023-02-18T11:57:04;98625.66;;;26.69;64.68
31239;BME280;17871;31.584;74.450;2023-02-18T11:59:35;98627.44;;;26.53;65.11
31239;BME280;17871;31.584;74.450;2023-02-18T12:04:47;98636.22;;;26.52;66.03
31239;BME280;17871;31.584;74.450;2023-02-18T12:32:04;98642.53;;;25.98;68.25
31239;BME280;17871;31.584;74.450;2023-02-18T12:43:11;98648.41;;;25.68;68.72
31239;BME280;17871;31.584;74.450;2023-02-18T12:45:50;98642.16;;;25.35;69.32
31239;BME280;17871;31.584;74.450;2023-02-18T12:51:48;98652.25;;;25.43;68.74
31239;BME280;17871;31.584;74.450;2023-02-18T12:54:54;98654.16;;;25.39;68.48
31239;BME280;17871;31.584;74.450;2023-02-18T12:57:35;98657.22;;;25.30;68.74
31239;BME280;17871;31.584;74.450;2023-02-18T13:03:10;98659.09;;;25.09;69.60
31239;BME280;17871;31.584;74.450;2023-02-18T13:06:07;98664.63;;;25.03;69.85
31239;BME280;17871;31.584;74.450;2023-02-18T13:11:33;98667.19;;;24.86;71.28
31239;BME280;17871;31.584;74.450;2023-02-18T13:14:15;98663.03;;;24.80;71.44
31239;BME280;17871;31.584;74.450;2023-02-18T13:16:50;98667.84;;;24.71;71.80
31239;BME280;17871;31.584;74.450;2023-02-18T13:19:26;98673.34;;;24.65;72.43
31239;BME280;17871;31.584;74.450;2023-02-18T13:22:03;98677.81;;;24.63;72.72
31239;BME280;17871;31.584;74.450;2023-02-18T13:24:39;98679.00;;;24.56;73.08
31239;BME280;17871;31.584;74.450;2023-02-18T13:27:22;98683.38;;;24.55;73.17
31239;BME280;17871;31.584;74.450;2023-02-18T13:35:40;98695.94;;;24.27;74.30
31239;BME280;17871;31.584;74.450;2023-02-18T13:41:05;98698.44;;;24.08;75.05
31239;BME280;17871;31.584;74.450;2023-02-18T13:43:37;98702.19;;;24.03;75.30
31239;BME280;17871;31.584;74.450;2023-02-18T13:46:16;98704.19;;;23.96;75.55
31239;BME280;17871;31.584;74.450;2023-02-18T13:49:05;98700.34;;;24.05;76.01
31239;BME280;17871;31.584;74.450;2023-02-18T13:51:44;98700.94;;;24.11;76.12
31239;BME280;17871;31.584;74.450;2023-02-18T14:02:32;98716.13;;;24.02;76.45
31239;BME280;17871;31.584;74.450;2023-02-18T14:07:45;98705.69;;;23.82;77.67
31239;BME280;17871;31.584;74.450;2023-02-18T14:13:00;98716.16;;;23.60;77.58
31239;BME280;17871;31.584;74.450;2023-02-18T14:20:46;98723.91;;;23.61;77.64
31239;BME280;17871;31.584;74.450;2023-02-18T14:37:34;98749.19;;;23.38;78.38
31239;BME280;17871;31.584;74.450;2023-02-18T14:40:27;98754.59;;;23.32;78.33
31239;BME280;17871;31.584;74.450;2023-02-18T14:43:06;98755.59;;;23.06;78.58
31239;BME280;17871;31.584;74.450;2023-02-18T14:53:39;98771.19;;;23.07;78.82
31239;BME280;17871;31.584;74.450;2023-02-18T14:56:12;98764.63;;;22.97;78.92
31239;BME280;17871;31.584;74.450;2023-02-18T14:58:49;98764.56;;;22.99;79.28
31239;BME280;17871;31.584;74.450;2023-02-18T15:03:53;98764.91;;;22.90;79.63
31239;BME280;17871;31.584;74.450;2023-02-18T15:06:36;98760.19;;;22.99;79.45
31239;BME280;17871;31.584;74.450;2023-02-18T15:09:20;98765.41;;;22.99;79.67
31239;BME280;17871;31.584;74.450;2023-02-18T15:11:59;98759.91;;;23.07;79.13
31239;BME280;17871;31.584;74.450;2023-02-18T15:14:32;98768.47;;;22.87;79.83
31239;BME280;17871;31.584;74.450;2023-02-18T15:17:03;98779.06;;;22.83;80.02
31239;BME280;17871;31.584;74.450;2023-02-18T15:19:45;98777.88;;;22.91;79.70
31239;BME280;17871;31.584;74.450;2023-02-18T15:22:21;98778.03;;;22.87;79.78
31239;BME280;17871;31.584;74.450;2023-02-18T15:24:52;98776.63;;;22.78;79.57
31239;BME280;17871;31.584;74.450;2023-02-18T15:27:30;98779.88;;;22.85;79.74
31239;BME280;17871;31.584;74.450;2023-02-18T15:30:29;98778.13;;;22.85;79.83
31239;BME280;17871;31.584;74.450;2023-02-18T15:32:59;98779.59;;;22.67;80.03
31239;BME280;17871;31.584;74.450;2023-02-18T15:35:30;98783.09;;;22.66;80.40
31239;BME280;17871;31.584;74.450;2023-02-18T15:38:00;98794.50;;;22.62;80.68
31239;BME280;17871;31.584;74.450;2023-02-18T15:40:34;98795.13;;;22.70;80.60
31239;BME280;17871;31.584;74.450;2023-02-18T15:43:05;98798.03;;;22.61;81.21
31239;BME280;17871;31.584;74.450;2023-02-18T15:45:42;98805.69;;;22.66;81.58
31239;BME280;17871;31.584;74.450;2023-02-18T15:50:52;98807.97;;;22.50;81.70
31239;BME280;17871;31.584;74.450;2023-02-18T15:53:25;98808.19;;;22.44;81.36
31239;BME280;17871;31.584;74.450;2023-02-18T15:55:54;98812.53;;;22.44;81.73
31239;BME280;17871;31.584;74.450;2023-02-18T15:58:29;98813.72;;;22.60;81.65
31239;BME280;17871;31.584;74.450;2023-02-18T16:01:01;98818.50;;;22.47;81.54
31239;BME280;17871;31.584;74.450;2023-02-18T16:03:51;98816.38;;;22.58;81.68
31239;BME280;17871;31.584;74.450;2023-02-18T16:06:25;98816.13;;;22.40;82.23